Time;durP1;ratioP1;P1;durP2;ratioP2;P2;SDS_P1;SDS_P2;PMS_P1;PMS_P2;Temp;Humidity;BMP_temperature;BMP_pressure;BME280_temperature;BME280_humidity;BME280_pressure;Samples;Min_cycle;Max_cycle;Signal;HPM_P1;HPM_P2
2023/03/10 00:00:07;;;;;;;14.85;8.38;;;0.80;99.90;;;;;;4988341;28;20047;-83
2023/03/10 00:02:34;;;;;;;14.60;7.85;;;0.80;99.90;;;;;;4987782;28;20077;-83
2023/03/10 00:05:00;;;;;;;13.73;7.97;;;0.80;99.90;;;;;;4987989;28;20125;-84
2023/03/10 00:07:26;;;;;;;13.07;7.35;;;0.80;99.90;;;;;;4987261;28;20451;-83
2023/03/10 00:09:51;;;;;;;16.20;8.50;;;0.80;99.90;;;;;;4987783;28;20050;-83
2023/03/10 00:12:17;;;;;;;16.13;8.77;;;0.80;99.90;;;;;;4987546;28;20124;-83
2023/03/10 00:14:43;;;;;;;15.93;8.38;;;0.80;99.90;;;;;;4988467;28;20054;-83
2023/03/10 00:17:08;;;;;;;14.38;7.82;;;0.80;99.90;;;;;;4986169;28;20176;-83
2023/03/10 00:19:34;;;;;;;15.32;8.00;;;0.80;99.90;;;;;;4987974;28;20047;-83
2023/03/10 00:22:01;;;;;;;14.98;8.25;;;0.80;99.90;;;;;;4988223;28;20054;-83
2023/03/10 00:24:27;;;;;;;13.15;7.10;;;0.80;99.90;;;;;;4988133;28;20047;-83
2023/03/10 00:26:52;;;;;;;13.65;8.05;;;0.80;99.90;;;;;;4988572;28;20049;-83
2023/03/10 00:29:18;;;;;;;14.93;7.70;;;0.80;99.90;;;;;;4988309;28;20119;-83
2023/03/10 00:31:44;;;;;;;15.20;7.82;;;0.80;99.90;;;;;;4987424;28;20209;-83
2023/03/10 00:34:10;;;;;;;14.13;7.55;;;0.80;99.90;;;;;;4986866;28;20401;-83
2023/03/10 00:36:38;;;;;;;14.52;7.82;;;0.80;99.90;;;;;;4987875;28;20054;-83
2023/03/10 00:39:04;;;;;;;14.23;7.50;;;0.80;99.90;;;;;;4988368;28;20409;-83
2023/03/10 00:41:32;;;;;;;16.25;8.35;;;0.80;99.90;;;;;;4987908;28;20120;-83
2023/03/10 00:43:59;;;;;;;14.07;8.20;;;0.80;99.90;;;;;;4987643;28;20114;-84
2023/03/10 00:46:26;;;;;;;16.35;8.52;;;0.80;99.90;;;;;;4987440;28;20085;-83
2023/03/10 00:48:52;;;;;;;14.00;8.07;;;0.80;99.90;;;;;;4970753;28;20042;-82
2023/03/10 00:51:19;;;;;;;14.65;8.38;;;0.80;99.90;;;;;;4986602;28;20179;-82
2023/03/10 00:53:45;;;;;;;15.57;8.77;;;0.80;99.90;;;;;;4987534;28;20046;-83
2023/03/10 00:56:17;;;;;;;15.93;8.23;;;0.80;99.90;;;;;;4990721;28;20155;-82
2023/03/10 00:58:44;;;;;;;14.40;8.23;;;0.80;99.90;;;;;;4991671;28;20258;-83
2023/03/10 01:01:40;;;;;;;16.05;8.82;;;0.80;99.90;;;;;;4991014;28;20042;-83
2023/03/10 01:04:10;;;;;;;15.77;8.70;;;0.80;99.90;;;;;;4986394;28;20065;-83
2023/03/10 01:06:36;;;;;;;16.05;8.85;;;0.80;99.90;;;;;;4989804;28;20085;-83
2023/03/10 01:09:02;;;;;;;16.30;9.63;;;0.80;99.90;;;;;;4991652;28;20505;-84
2023/03/10 01:11:29;;;;;;;15.73;8.68;;;0.80;99.90;;;;;;4991459;28;20050;-83
2023/03/10 01:13:57;;;;;;;16.70;9.15;;;0.80;99.90;;;;;;4989371;28;20902;-84
2023/03/10 01:16:23;;;;;;;14.43;8.93;;;0.80;99.90;;;;;;4989151;28;20050;-84
2023/03/10 01:18:50;;;;;;;17.27;9.45;;;0.80;99.90;;;;;;4990252;28;20046;-84
2023/03/10 01:21:22;;;;;;;17.73;9.70;;;0.80;99.90;;;;;;4991100;28;20108;-83
2023/03/10 01:23:48;;;;;;;16.75;9.85;;;0.80;99.90;;;;;;4989235;28;20054;-83
2023/03/10 01:26:14;;;;;;;16.33;10.15;;;0.80;99.90;;;;;;4989237;28;20050;-83
2023/03/10 01:28:40;;;;;;;17.65;10.07;;;0.80;99.90;;;;;;4989711;28;20065;-83
2023/03/10 01:31:06;;;;;;;15.23;9.15;;;0.80;99.90;;;;;;4989780;28;20080;-83
2023/03/10 01:33:41;;;;;;;17.67;9.25;;;0.80;99.90;;;;;;4989726;28;20066;-82
2023/03/10 01:36:14;;;;;;;16.00;9.25;;;0.50;99.90;;;;;;4989887;28;20043;-84
2023/03/10 01:38:39;;;;;;;15.60;9.38;;;0.80;99.90;;;;;;4991097;28;20408;-83
2023/03/10 01:41:05;;;;;;;16.33;9.45;;;0.80;99.90;;;;;;4973101;28;20046;-83
2023/03/10 01:43:37;;;;;;;15.07;8.70;;;0.80;99.90;;;;;;4989655;28;20101;-83
2023/03/10 01:46:02;;;;;;;15.15;8.40;;;0.80;99.90;;;;;;4990468;28;20042;-82
2023/03/10 01:48:31;;;;;;;16.65;9.15;;;0.80;99.90;;;;;;4989612;28;20065;-82
2023/03/10 01:50:57;;;;;;;14.88;8.13;;;0.80;99.90;;;;;;4991723;28;20042;-83
2023/03/10 01:53:26;;;;;;;13.77;8.68;;;0.80;99.90;;;;;;4991310;28;20042;-83
2023/03/10 01:55:55;;;;;;;16.33;9.23;;;0.80;99.90;;;;;;4989484;28;20046;-83
2023/03/10 01:58:25;;;;;;;15.38;8.45;;;0.80;99.90;;;;;;4982744;28;20054;-83
2023/03/10 02:00:53;;;;;;;13.88;8.18;;;0.80;99.90;;;;;;4989928;28;20058;-83
2023/03/10 02:03:40;;;;;;;15.10;8.50;;;0.80;99.90;;;;;;4991396;28;20050;-82
2023/03/10 02:06:10;;;;;;;14.35;8.85;;;0.80;99.90;;;;;;4989871;28;20053;-82
2023/03/10 02:08:46;;;;;;;16.45;8.48;;;0.80;99.90;;;;;;4988398;28;20046;-82
2023/03/10 02:11:21;;;;;;;13.15;8.02;;;0.80;99.90;;;;;;4989372;28;20130;-82
2023/03/10 02:13:51;;;;;;;16.38;8.60;;;0.80;99.90;;;;;;4990542;28;20042;-82
2023/03/10 02:16:21;;;;;;;13.77;7.78;;;0.80;99.90;;;;;;4991646;28;20488;-82
2023/03/10 02:18:48;;;;;;;14.18;8.05;;;0.80;99.90;;;;;;4989746;28;20482;-82
2023/03/10 02:21:42;;;;;;;16.60;8.07;;;0.80;99.90;;;;;;4989540;28;20046;-82
2023/03/10 02:24:24;;;;;;;14.43;8.02;;;0.80;99.90;;;;;;4992794;28;20109;-81
2023/03/10 02:27:05;;;;;;;14.65;8.32;;;0.80;99.90;;;;;;4989526;28;20486;-82
2023/03/10 02:29:44;;;;;;;13.50;7.60;;;0.80;99.90;;;;;;4991163;28;20044;-81
2023/03/10 02:32:10;;;;;;;14.00;8.07;;;0.80;99.90;;;;;;4990798;28;20416;-82
2023/03/10 02:34:36;;;;;;;14.93;8.82;;;0.80;99.90;;;;;;4990130;28;20492;-82
2023/03/10 02:37:02;;;;;;;12.77;8.18;;;0.80;99.90;;;;;;4991238;28;20090;-81
2023/03/10 02:39:28;;;;;;;15.15;8.25;;;0.80;99.90;;;;;;4990813;28;20117;-81
2023/03/10 02:41:53;;;;;;;14.63;8.23;;;0.80;99.90;;;;;;4988457;28;20046;-81
2023/03/10 02:44:22;;;;;;;14.20;7.82;;;0.80;99.90;;;;;;4990638;28;20055;-81
2023/03/10 02:46:48;;;;;;;14.98;8.30;;;0.80;99.90;;;;;;4990179;28;20045;-81
2023/03/10 02:49:15;;;;;;;15.20;8.77;;;0.80;99.90;;;;;;4990031;28;20042;-82
2023/03/10 02:51:43;;;;;;;17.10;8.95;;;0.80;99.90;;;;;;4988762;28;20073;-82
2023/03/10 02:54:10;;;;;;;14.00;7.88;;;0.80;99.90;;;;;;4990335;28;20429;-81
2023/03/10 02:56:36;;;;;;;17.13;9.23;;;0.80;99.90;;;;;;4988540;28;20585;-82
2023/03/10 02:59:04;;;;;;;14.85;9.13;;;0.80;99.90;;;;;;4990327;28;20046;-83
2023/03/10 03:01:30;;;;;;;17.33;9.38;;;0.80;99.90;;;;;;4972450;28;20042;-82
2023/03/10 03:03:56;;;;;;;17.48;8.77;;;0.80;99.90;;;;;;4988486;28;20469;-82
2023/03/10 03:06:22;;;;;;;17.67;9.30;;;0.80;99.90;;;;;;4990180;28;20511;-82
2023/03/10 03:08:49;;;;;;;15.00;8.98;;;0.80;99.90;;;;;;4988208;28;20137;-82
2023/03/10 03:11:15;;;;;;;17.42;10.15;;;0.80;99.90;;;;;;4990501;28;20046;-82
2023/03/10 03:13:41;;;;;;;17.98;9.88;;;0.80;99.90;;;;;;4989636;28;20045;-82
2023/03/10 03:16:08;;;;;;;18.63;10.05;;;0.80;99.90;;;;;;4987225;28;20481;-82
2023/03/10 03:18:35;;;;;;;18.55;10.32;;;0.80;99.90;;;;;;4972043;28;20145;-82
2023/03/10 03:21:10;;;;;;;19.83;11.10;;;0.80;99.90;;;;;;4990290;28;20050;-82
2023/03/10 03:23:37;;;;;;;23.15;11.48;;;0.80;99.90;;;;;;4987765;28;20047;-82
2023/03/10 03:26:03;;;;;;;25.83;11.50;;;0.80;99.90;;;;;;4971840;28;20066;-82
2023/03/10 03:28:29;;;;;;;20.67;10.52;;;0.80;99.90;;;;;;4989624;28;20136;-81
2023/03/10 03:30:54;;;;;;;21.83;11.40;;;0.90;99.90;;;;;;4989369;28;20496;-81
2023/03/10 03:33:20;;;;;;;21.60;11.60;;;0.80;99.90;;;;;;4986903;28;20092;-82
2023/03/10 03:35:46;;;;;;;22.27;12.05;;;0.90;99.90;;;;;;4988073;28;20065;-82
2023/03/10 03:38:12;;;;;;;24.75;12.32;;;0.80;99.90;;;;;;4989758;28;20811;-81
2023/03/10 03:40:38;;;;;;;21.83;11.52;;;0.80;99.90;;;;;;4988051;28;20058;-83
2023/03/10 03:43:04;;;;;;;18.77;10.10;;;0.80;99.90;;;;;;4988299;28;20046;-81
2023/03/10 03:45:31;;;;;;;21.40;11.18;;;0.80;99.90;;;;;;4987306;28;20046;-81
2023/03/10 03:47:57;;;;;;;18.40;10.48;;;0.80;99.90;;;;;;4989853;28;20050;-82
2023/03/10 03:50:23;;;;;;;21.25;11.23;;;0.80;99.90;;;;;;4987799;28;20042;-81
2023/03/10 03:52:49;;;;;;;21.52;10.73;;;0.80;99.90;;;;;;4988364;28;20132;-82
2023/03/10 03:55:16;;;;;;;18.98;10.10;;;0.90;99.90;;;;;;4971387;28;20086;-82
2023/03/10 03:57:43;;;;;;;20.42;10.15;;;0.90;99.90;;;;;;4987406;28;20532;-82
2023/03/10 04:00:13;;;;;;;19.45;9.63;;;0.80;99.90;;;;;;4988530;28;20046;-82
2023/03/10 04:02:39;;;;;;;17.70;9.82;;;0.80;99.90;;;;;;4988179;28;20053;-82
2023/03/10 04:05:05;;;;;;;16.33;8.63;;;0.90;99.90;;;;;;4987974;28;20061;-83
2023/03/10 04:07:31;;;;;;;14.60;8.90;;;0.80;99.90;;;;;;4987470;28;20046;-83
2023/03/10 04:09:57;;;;;;;15.30;8.13;;;0.80;99.90;;;;;;4986950;28;20132;-81
2023/03/10 04:12:24;;;;;;;15.57;8.38;;;0.80;99.90;;;;;;5002869;28;20406;-81
2023/03/10 04:14:51;;;;;;;16.30;9.15;;;0.90;99.90;;;;;;4989095;28;20814;-83
2023/03/10 04:17:16;;;;;;;16.60;8.68;;;0.80;99.90;;;;;;4987607;28;20073;-82
2023/03/10 04:19:42;;;;;;;16.88;9.02;;;0.80;99.90;;;;;;4986659;28;20485;-82
2023/03/10 04:22:09;;;;;;;15.55;8.40;;;0.90;99.90;;;;;;4986103;28;20049;-82
2023/03/10 04:24:38;;;;;;;14.52;8.05;;;0.80;99.90;;;;;;4980584;28;20064;-82
2023/03/10 04:27:03;;;;;;;15.23;7.85;;;0.80;99.90;;;;;;4989236;28;20055;-82
2023/03/10 04:29:29;;;;;;;15.02;7.68;;;0.80;99.90;;;;;;4991581;28;20413;-82
2023/03/10 04:31:54;;;;;;;15.98;8.30;;;0.80;99.90;;;;;;4993066;28;20125;-82
2023/03/10 04:34:20;;;;;;;15.23;8.35;;;0.80;99.90;;;;;;4991810;28;20038;-82
2023/03/10 04:36:46;;;;;;;15.63;8.07;;;0.80;99.90;;;;;;4987298;28;20046;-81
2023/03/10 04:39:11;;;;;;;14.38;8.35;;;0.80;99.90;;;;;;4983191;28;20054;-82
2023/03/10 04:41:37;;;;;;;16.02;8.05;;;0.80;99.90;;;;;;4975051;28;20054;-81
2023/03/10 04:44:03;;;;;;;12.85;7.18;;;0.80;99.90;;;;;;4992386;28;20129;-82
2023/03/10 04:46:30;;;;;;;14.13;7.28;;;0.80;99.90;;;;;;4992621;28;20058;-82
2023/03/10 04:48:56;;;;;;;13.77;7.47;;;0.80;99.90;;;;;;4992255;28;20112;-81
2023/03/10 04:51:22;;;;;;;14.07;7.32;;;0.80;99.90;;;;;;4992216;28;20497;-82
2023/03/10 04:53:47;;;;;;;13.18;7.05;;;0.80;99.90;;;;;;4992072;28;20068;-83
2023/03/10 04:56:13;;;;;;;14.18;7.85;;;0.80;99.90;;;;;;4989828;28;20710;-83
2023/03/10 04:58:39;;;;;;;15.35;7.53;;;0.80;99.90;;;;;;4989372;28;20046;-82
2023/03/10 05:01:13;;;;;;;12.88;7.30;;;0.90;99.90;;;;;;4992824;28;20042;-81
2023/03/10 05:03:39;;;;;;;12.80;6.95;;;1.40;99.90;;;;;;4991637;28;20038;-83
2023/03/10 05:06:09;;;;;;;12.75;6.85;;;0.80;99.90;;;;;;4991352;28;20049;-83
2023/03/10 05:08:35;;;;;;;14.73;6.75;;;0.80;99.90;;;;;;4973747;28;20524;-83
2023/03/10 05:11:05;;;;;;;12.25;6.75;;;0.80;99.90;;;;;;4990301;28;20050;-83
2023/03/10 05:13:31;;;;;;;14.43;7.35;;;1.20;99.90;;;;;;4989311;28;20101;-83
2023/03/10 05:15:56;;;;;;;14.30;7.07;;;0.80;99.90;;;;;;4990580;28;20046;-82
2023/03/10 05:18:22;;;;;;;13.50;7.22;;;0.90;99.90;;;;;;4973736;28;20050;-83
2023/03/10 05:20:53;;;;;;;14.27;7.47;;;0.80;99.90;;;;;;4991564;28;20085;-83
2023/03/10 05:23:19;;;;;;;13.38;7.47;;;0.80;99.90;;;;;;4991292;28;20133;-83
2023/03/10 05:25:44;;;;;;;12.10;6.65;;;0.80;99.90;;;;;;4989988;28;20168;-84
2023/03/10 05:28:10;;;;;;;15.07;7.57;;;0.80;99.90;;;;;;4988059;28;20058;-83
2023/03/10 05:30:36;;;;;;;12.90;7.30;;;0.80;99.90;;;;;;4990618;28;20125;-84
2023/03/10 05:33:02;;;;;;;13.88;6.85;;;0.80;99.90;;;;;;4990122;28;20050;-83
2023/03/10 05:35:27;;;;;;;13.77;7.38;;;0.80;99.90;;;;;;4988597;28;20350;-84
2023/03/10 05:37:53;;;;;;;14.85;7.32;;;0.80;99.90;;;;;;4990375;28;20050;-84
2023/03/10 05:40:18;;;;;;;14.23;7.18;;;0.80;99.90;;;;;;4988494;28;20050;-84
2023/03/10 05:42:46;;;;;;;12.68;7.30;;;0.80;99.90;;;;;;4971674;28;20050;-84
2023/03/10 05:45:12;;;;;;;14.05;7.15;;;0.80;99.90;;;;;;4987212;28;20042;-84
2023/03/10 05:47:40;;;;;;;11.63;7.15;;;0.80;99.90;;;;;;4987094;28;20137;-84
2023/03/10 05:50:07;;;;;;;14.00;7.93;;;0.80;99.90;;;;;;4988791;28;20042;-84
2023/03/10 05:52:41;;;;;;;13.65;7.47;;;0.80;99.90;;;;;;4988975;28;20038;-85
2023/03/10 05:55:10;;;;;;;14.65;7.53;;;0.80;99.90;;;;;;4988950;28;20096;-84
2023/03/10 05:57:36;;;;;;;13.75;7.68;;;0.80;99.90;;;;;;4990629;28;20058;-84
2023/03/10 06:00:02;;;;;;;14.10;7.88;;;0.80;99.90;;;;;;4990313;28;20113;-85
2023/03/10 06:02:27;;;;;;;14.05;7.32;;;0.80;99.90;;;;;;4990489;28;20121;-84
2023/03/10 06:04:53;;;;;;;13.13;7.72;;;0.80;99.90;;;;;;4989707;28;20121;-84
2023/03/10 06:07:19;;;;;;;14.52;7.65;;;0.80;99.90;;;;;;4990287;28;20401;-83
2023/03/10 06:09:44;;;;;;;14.52;8.13;;;0.90;99.90;;;;;;4990546;28;20165;-84
2023/03/10 06:12:10;;;;;;;17.40;8.85;;;0.80;99.90;;;;;;4989844;28;20089;-84
2023/03/10 06:14:37;;;;;;;16.38;9.13;;;0.80;99.90;;;;;;4990043;28;20069;-85
2023/03/10 06:17:03;;;;;;;18.88;8.82;;;0.90;99.90;;;;;;4988700;28;20057;-84
2023/03/10 06:19:28;;;;;;;17.63;9.20;;;0.80;99.90;;;;;;4989885;28;20046;-85
2023/03/10 06:21:55;;;;;;;18.42;9.75;;;0.90;99.90;;;;;;4987471;28;20049;-86
2023/03/10 06:24:21;;;;;;;19.00;9.05;;;0.80;99.90;;;;;;4988907;28;20050;-87
2023/03/10 06:26:46;;;;;;;20.33;10.80;;;0.90;99.90;;;;;;4989924;28;20065;-85
2023/03/10 06:29:12;;;;;;;20.02;9.57;;;0.80;99.90;;;;;;4984387;28;20081;-85
2023/03/10 06:31:37;;;;;;;20.55;10.02;;;0.90;99.90;;;;;;4975426;28;20051;-87
2023/03/10 06:34:03;;;;;;;24.23;11.90;;;0.90;99.90;;;;;;4978734;28;20100;-85
2023/03/10 06:36:32;;;;;;;25.48;11.95;;;0.90;99.90;;;;;;4971892;28;20727;-85
2023/03/10 06:38:57;;;;;;;24.60;12.77;;;0.90;99.90;;;;;;4990722;28;20042;-84
2023/03/10 06:41:24;;;;;;;24.88;12.13;;;0.90;99.90;;;;;;4991283;28;20062;-85
2023/03/10 06:43:50;;;;;;;26.92;12.70;;;0.90;99.90;;;;;;4989629;28;20113;-85
2023/03/10 06:46:16;;;;;;;30.17;13.63;;;0.90;99.90;;;;;;4986903;28;20054;-85
2023/03/10 06:48:42;;;;;;;28.75;12.65;;;0.90;99.90;;;;;;4988678;28;20046;-85
2023/03/10 06:51:16;;;;;;;26.83;13.70;;;0.90;99.90;;;;;;4987725;28;20105;-87
2023/03/10 06:53:42;;;;;;;26.85;13.00;;;0.90;99.90;;;;;;4986744;28;20520;-86
2023/03/10 06:56:14;;;;;;;30.20;14.05;;;0.90;99.90;;;;;;4989704;28;20046;-85
2023/03/10 06:58:40;;;;;;;28.80;13.82;;;1.00;99.90;;;;;;4986616;28;20052;-86
2023/03/10 07:01:07;;;;;;;28.08;14.43;;;1.00;99.90;;;;;;4983272;28;20132;-85
2023/03/10 07:03:33;;;;;;;29.70;13.75;;;1.00;99.90;;;;;;4984260;28;20042;-85
2023/03/10 07:05:59;;;;;;;32.38;14.43;;;1.00;99.90;;;;;;4987673;28;20050;-87
2023/03/10 07:08:28;;;;;;;30.77;14.77;;;1.00;99.90;;;;;;4988548;28;20132;-87
2023/03/10 07:10:54;;;;;;;31.15;14.50;;;1.00;99.90;;;;;;4989439;28;20133;-86
2023/03/10 07:13:20;;;;;;;30.98;14.73;;;1.10;99.90;;;;;;4987357;28;20557;-86
2023/03/10 07:15:47;;;;;;;34.20;15.32;;;1.00;99.90;;;;;;4988553;28;20043;-86
2023/03/10 07:18:13;;;;;;;35.40;14.88;;;1.10;99.90;;;;;;4980833;28;20358;-86
2023/03/10 07:20:41;;;;;;;32.92;14.70;;;1.10;99.90;;;;;;4985457;28;20046;-86
2023/03/10 07:23:07;;;;;;;28.25;13.13;;;1.10;99.90;;;;;;4976987;28;20076;-86
2023/03/10 07:25:36;;;;;;;34.33;14.55;;;1.10;99.90;;;;;;4980782;28;20042;-87
2023/03/10 07:28:02;;;;;;;29.02;13.32;;;1.10;99.90;;;;;;4978929;28;20230;-85
2023/03/10 07:30:28;;;;;;;32.47;13.85;;;1.10;99.90;;;;;;4973626;28;20334;-87
2023/03/10 07:32:53;;;;;;;28.30;14.27;;;1.10;99.90;;;;;;4987649;28;20042;-87
2023/03/10 07:35:19;;;;;;;32.65;14.10;;;1.10;99.90;;;;;;4988127;28;20045;-85
2023/03/10 07:37:45;;;;;;;28.65;13.80;;;1.10;99.90;;;;;;4989196;28;20552;-87
2023/03/10 07:40:11;;;;;;;28.83;13.10;;;1.10;99.90;;;;;;4990339;28;20108;-85
2023/03/10 07:42:36;;;;;;;29.15;13.75;;;1.10;99.90;;;;;;4989068;28;20054;-84
2023/03/10 07:45:03;;;;;;;23.63;12.75;;;1.10;99.90;;;;;;4989451;28;20791;-83
2023/03/10 07:47:29;;;;;;;27.35;13.63;;;1.10;99.90;;;;;;4989539;28;20042;-83
2023/03/10 07:49:55;;;;;;;26.73;12.75;;;1.10;99.90;;;;;;4986037;28;20057;-84
2023/03/10 07:52:21;;;;;;;27.90;13.48;;;1.10;99.90;;;;;;4984894;28;20078;-83
2023/03/10 07:54:46;;;;;;;26.33;13.13;;;1.10;99.90;;;;;;4986308;28;20074;-84
2023/03/10 07:57:13;;;;;;;26.67;12.25;;;1.20;99.90;;;;;;4986002;28;20495;-83
2023/03/10 07:59:47;;;;;;;26.80;12.30;;;1.10;99.90;;;;;;4987164;28;20050;-84
2023/03/10 08:02:15;;;;;;;25.65;11.88;;;1.10;99.90;;;;;;4969737;28;20249;-84
2023/03/10 08:04:44;;;;;;;23.52;11.60;;;1.10;99.90;;;;;;4992047;28;20054;-84
2023/03/10 08:07:09;;;;;;;23.52;12.02;;;1.20;99.90;;;;;;4991536;28;20050;-85
2023/03/10 08:09:35;;;;;;;26.65;12.75;;;1.20;99.90;;;;;;4991764;28;20038;-84
2023/03/10 08:12:07;;;;;;;24.65;11.90;;;1.20;99.90;;;;;;4973177;28;20090;-85
2023/03/10 08:14:35;;;;;;;23.15;11.85;;;1.20;99.90;;;;;;4990442;28;20038;-85
2023/03/10 08:17:01;;;;;;;21.13;11.65;;;1.20;99.90;;;;;;4992736;28;20527;-85
2023/03/10 08:19:27;;;;;;;23.27;12.35;;;1.30;99.90;;;;;;4994110;28;20112;-85
2023/03/10 08:21:56;;;;;;;24.73;12.48;;;1.30;99.90;;;;;;4994919;28;20468;-85
2023/03/10 08:24:23;;;;;;;21.27;11.10;;;1.30;99.90;;;;;;4995561;28;20046;-84
2023/03/10 08:26:49;;;;;;;21.52;10.85;;;1.30;99.90;;;;;;4994667;28;20064;-85
2023/03/10 08:29:16;;;;;;;22.20;12.40;;;1.30;99.90;;;;;;4977184;28;20050;-85
2023/03/10 08:31:41;;;;;;;25.30;12.73;;;1.30;99.90;;;;;;4994439;28;20054;-85
2023/03/10 08:34:07;;;;;;;20.27;11.57;;;1.40;99.90;;;;;;4993417;28;20518;-85
2023/03/10 08:36:33;;;;;;;21.77;10.95;;;1.40;99.90;;;;;;4993495;28;20200;-85
2023/03/10 08:38:59;;;;;;;18.50;10.63;;;1.40;99.90;;;;;;4994833;28;20084;-85
2023/03/10 08:41:45;;;;;;;19.85;11.07;;;1.40;99.90;;;;;;4992453;28;20401;-85
2023/03/10 08:44:14;;;;;;;19.55;10.13;;;1.40;99.90;;;;;;4992677;28;20054;-86
2023/03/10 08:46:42;;;;;;;23.52;12.07;;;1.40;99.90;;;;;;4993801;28;20053;-85
2023/03/10 08:49:08;;;;;;;23.67;12.13;;;1.50;99.90;;;;;;4994310;28;20057;-83
2023/03/10 08:51:34;;;;;;;21.58;11.65;;;1.90;99.90;;;;;;4992492;28;20056;-83
2023/03/10 08:54:00;;;;;;;21.63;10.68;;;1.40;99.90;;;;;;4994476;28;20401;-82
2023/03/10 08:56:26;;;;;;;21.25;11.55;;;1.70;99.90;;;;;;4993680;28;20057;-85
2023/03/10 08:58:55;;;;;;;23.80;11.30;;;1.50;99.90;;;;;;4992364;28;20095;-85
2023/03/10 09:01:21;;;;;;;22.02;11.80;;;1.40;99.90;;;;;;4993850;28;20053;-85
2023/03/10 09:03:46;;;;;;;22.38;11.73;;;1.40;99.90;;;;;;4992948;28;20506;-84
2023/03/10 09:06:13;;;;;;;20.45;11.85;;;1.40;99.90;;;;;;4992510;28;20125;-84
2023/03/10 09:08:40;;;;;;;21.67;11.50;;;1.50;99.90;;;;;;4993982;28;20050;-84
2023/03/10 09:11:06;;;;;;;20.88;11.20;;;1.50;99.90;;;;;;4988765;28;20128;-84
2023/03/10 09:13:32;;;;;;;23.52;11.35;;;1.50;99.90;;;;;;4978051;28;20046;-85
2023/03/10 09:15:57;;;;;;;21.00;11.30;;;1.60;99.90;;;;;;4990667;28;20046;-83
2023/03/10 09:18:23;;;;;;;22.90;12.00;;;1.60;99.90;;;;;;4984978;28;20553;-83
2023/03/10 09:20:49;;;;;;;22.88;12.18;;;1.60;99.90;;;;;;4989747;28;20050;-83
2023/03/10 09:23:15;;;;;;;21.40;11.70;;;1.60;99.90;;;;;;4989713;28;20042;-83
2023/03/10 09:25:42;;;;;;;17.58;10.27;;;1.60;99.90;;;;;;4990165;28;20050;-84
2023/03/10 09:28:09;;;;;;;20.35;11.45;;;1.60;99.90;;;;;;4991662;28;20049;-83
2023/03/10 09:30:36;;;;;;;20.17;12.05;;;1.50;99.90;;;;;;4991449;28;20049;-84
2023/03/10 09:33:29;;;;;;;18.95;11.18;;;1.50;99.90;;;;;;4990341;28;20093;-82
2023/03/10 09:35:56;;;;;;;19.00;11.05;;;1.50;99.90;;;;;;4988719;28;20133;-83
2023/03/10 09:38:22;;;;;;;20.02;11.68;;;1.50;99.90;;;;;;4989377;28;20408;-82
2023/03/10 09:40:55;;;;;;;19.05;11.65;;;1.50;99.90;;;;;;4990594;28;20520;-82
2023/03/10 09:43:22;;;;;;;20.52;11.20;;;1.40;99.90;;;;;;4972290;28;20061;-82
2023/03/10 09:46:05;;;;;;;23.60;13.15;;;1.50;99.90;;;;;;4989229;28;20046;-82
2023/03/10 09:49:05;;;;;;;20.70;11.52;;;1.40;99.90;;;;;;4987753;28;20065;-82
2023/03/10 09:51:31;;;;;;;23.00;11.98;;;1.40;99.90;;;;;;4989395;28;20050;-82
2023/03/10 09:54:21;;;;;;;22.23;11.52;;;1.50;99.90;;;;;;4988118;28;20046;-82
2023/03/10 09:56:46;;;;;;;19.45;11.15;;;1.50;99.90;;;;;;4990151;28;20445;-83
2023/03/10 09:59:25;;;;;;;20.33;11.57;;;1.50;99.90;;;;;;4973329;28;20057;-83
2023/03/10 10:01:52;;;;;;;21.75;11.75;;;1.60;99.90;;;;;;4988678;28;20050;-83
2023/03/10 10:04:25;;;;;;;20.05;11.07;;;1.60;99.90;;;;;;4971889;28;20038;-84
2023/03/10 10:06:51;;;;;;;23.55;12.68;;;1.70;99.90;;;;;;4989123;28;20502;-84
2023/03/10 10:09:23;;;;;;;21.58;12.35;;;1.70;99.90;;;;;;4990497;28;20117;-83
2023/03/10 10:11:48;;;;;;;20.63;12.20;;;1.70;99.90;;;;;;4988562;28;20053;-85
2023/03/10 10:14:21;;;;;;;23.90;13.00;;;1.70;99.90;;;;;;4989606;28;20384;-85
2023/03/10 10:17:04;;;;;;;22.13;11.55;;;1.70;99.90;;;;;;4989564;28;20065;-85
2023/03/10 10:19:31;;;;;;;19.70;10.85;;;1.70;99.90;;;;;;4971070;28;20675;-86
2023/03/10 10:22:17;;;;;;;21.23;11.93;;;1.70;99.90;;;;;;4987974;28;20050;-86
2023/03/10 10:25:07;;;;;;;19.60;11.77;;;1.70;99.90;;;;;;4989139;28;20053;-86
2023/03/10 10:27:33;;;;;;;18.85;11.38;;;1.70;99.90;;;;;;4986749;28;20209;-86
2023/03/10 10:30:27;;;;;;;21.17;11.68;;;1.70;99.90;;;;;;4990242;28;20046;-86
2023/03/10 10:33:01;;;;;;;21.52;11.43;;;1.70;99.90;;;;;;4988521;28;20065;-87
2023/03/10 10:35:32;;;;;;;21.33;12.30;;;1.70;99.90;;;;;;4987478;28;20038;-86
2023/03/10 10:38:05;;;;;;;18.67;11.77;;;1.70;99.90;;;;;;4989566;28;20050;-85
2023/03/10 10:40:45;;;;;;;20.73;11.88;;;1.60;99.90;;;;;;4984868;28;20424;-86
2023/03/10 10:43:16;;;;;;;20.83;11.90;;;1.20;99.90;;;;;;4969064;28;20055;-87
2023/03/10 10:45:42;;;;;;;22.00;11.98;;;1.60;99.90;;;;;;4968829;28;20129;-85
2023/03/10 10:48:41;;;;;;;22.55;12.70;;;1.60;99.90;;;;;;4970681;28;20121;-88
2023/03/10 10:51:28;;;;;;;21.13;12.23;;;1.60;99.90;;;;;;4967630;28;20149;-88
2023/03/10 10:54:18;;;;;;;22.13;11.90;;;1.60;99.90;;;;;;4988216;28;20110;-88
2023/03/10 10:56:55;;;;;;;19.75;11.70;;;1.60;99.90;;;;;;4987162;28;20046;-88
2023/03/10 10:59:26;;;;;;;22.13;11.95;;;1.50;99.90;;;;;;4988265;28;20054;-89
2023/03/10 11:01:53;;;;;;;21.70;11.45;;;1.50;99.90;;;;;;4988032;28;20512;-87
2023/03/10 11:04:21;;;;;;;26.02;12.75;;;1.50;99.90;;;;;;4989157;28;20069;-87
2023/03/10 11:06:48;;;;;;;22.45;12.35;;;1.50;99.90;;;;;;4986481;28;20159;-88
2023/03/10 11:09:19;;;;;;;21.83;12.85;;;1.50;99.90;;;;;;4988280;28;20157;-88
2023/03/10 11:11:54;;;;;;;19.58;11.57;;;1.40;99.90;;;;;;4989364;28;20086;-84
2023/03/10 11:14:40;;;;;;;21.90;12.98;;;1.50;99.90;;;;;;4987649;28;20046;-88
2023/03/10 11:17:47;;;;;;;22.08;12.25;;;1.50;99.90;;;;;;4973396;28;20051;-88
2023/03/10 11:20:39;;;;;;;23.85;12.05;;;1.40;99.90;;;;;;4970319;28;20145;-88
2023/03/10 11:23:20;;;;;;;23.90;12.50;;;1.40;99.90;;;;;;4987074;28;20046;-88
2023/03/10 11:25:46;;;;;;;23.73;12.70;;;1.40;99.90;;;;;;4986931;28;20046;-87
2023/03/10 11:28:52;;;;;;;23.02;12.77;;;1.40;99.90;;;;;;4987203;28;20058;-88
2023/03/10 11:31:44;;;;;;;21.98;12.07;;;1.40;99.90;;;;;;4988331;28;20485;-87
2023/03/10 11:34:30;;;;;;;23.20;12.63;;;1.40;99.90;;;;;;4987218;28;20085;-87
2023/03/10 11:37:23;;;;;;;24.63;12.65;;;1.40;99.90;;;;;;4987691;28;20054;-88
2023/03/10 11:40:18;;;;;;;23.40;12.05;;;1.40;99.90;;;;;;4971415;28;20057;-87
2023/03/10 11:43:09;;;;;;;21.20;12.40;;;1.40;99.90;;;;;;4970660;28;20050;-88
2023/03/10 11:45:52;;;;;;;20.85;11.27;;;1.40;99.90;;;;;;4987711;28;20463;-87
2023/03/10 11:48:29;;;;;;;22.40;12.30;;;1.30;99.90;;;;;;4987528;28;20047;-86
2023/03/10 11:51:00;;;;;;;21.95;12.07;;;1.30;99.90;;;;;;4988406;28;20084;-87
2023/03/10 11:53:46;;;;;;;20.17;11.63;;;1.30;99.90;;;;;;4988713;28;20094;-87
2023/03/10 11:56:14;;;;;;;21.10;12.00;;;1.30;99.90;;;;;;4987441;28;20061;-87
2023/03/10 11:58:54;;;;;;;20.95;12.05;;;1.30;99.90;;;;;;4988023;28;20148;-88
2023/03/10 12:01:43;;;;;;;20.50;11.82;;;1.30;99.90;;;;;;4970692;28;20134;-88
2023/03/10 12:04:17;;;;;;;23.23;11.65;;;1.40;99.90;;;;;;4969839;28;20050;-88
2023/03/10 12:07:03;;;;;;;18.85;10.55;;;1.30;99.90;;;;;;4987516;28;20062;-88
2023/03/10 12:09:32;;;;;;;20.08;11.27;;;1.50;99.90;;;;;;4986643;28;20046;-86
2023/03/10 12:12:00;;;;;;;21.38;11.18;;;1.40;99.90;;;;;;4984516;28;20043;-87
2023/03/10 12:14:25;;;;;;;18.90;10.98;;;1.40;99.90;;;;;;4973863;28;20066;-86
2023/03/10 12:16:53;;;;;;;20.67;11.20;;;1.40;99.90;;;;;;4982908;28;20440;-89
2023/03/10 12:19:18;;;;;;;20.45;10.48;;;1.40;99.90;;;;;;4977636;28;20096;-88
2023/03/10 12:21:46;;;;;;;19.17;11.00;;;1.30;99.90;;;;;;4986900;28;20054;-89
2023/03/10 12:24:41;;;;;;;18.30;10.70;;;1.40;99.90;;;;;;4987221;28;20053;-90
2023/03/10 12:27:08;;;;;;;21.60;11.23;;;1.40;99.90;;;;;;4980890;28;20746;-89
2023/03/10 12:29:39;;;;;;;19.75;10.15;;;1.40;99.90;;;;;;4986875;28;20057;-88
2023/03/10 12:32:43;;;;;;;18.37;10.40;;;1.50;99.90;;;;;;4983185;28;20050;-88
2023/03/10 12:35:39;;;;;;;22.25;11.20;;;1.50;99.90;;;;;;4980712;28;20452;-87
2023/03/10 12:38:24;;;;;;;18.02;10.75;;;1.50;99.90;;;;;;4985327;28;20157;-86
2023/03/10 12:40:51;;;;;;;19.33;11.32;;;1.50;99.90;;;;;;4982364;28;20059;-85
2023/03/10 12:43:45;;;;;;;21.73;10.73;;;1.50;99.90;;;;;;4985750;28;20069;-86
2023/03/10 12:46:21;;;;;;;21.15;11.07;;;1.50;99.90;;;;;;4968895;28;20505;-88
2023/03/10 12:49:09;;;;;;;20.83;10.88;;;1.50;99.90;;;;;;4982144;28;20126;-86
2023/03/10 12:51:47;;;;;;;19.15;10.57;;;1.50;99.90;;;;;;4989635;28;20047;-87
2023/03/10 12:54:25;;;;;;;16.48;9.27;;;1.50;99.90;;;;;;4987433;28;20081;-85